createdAt,value
2018-05-14T00:02:10.045Z,15.90
2018-05-14T00:04:38.353Z,15.90
2018-05-14T00:07:06.684Z,15.90
2018-05-14T00:09:34.995Z,15.80
2018-05-14T00:12:03.308Z,15.80
2018-05-14T00:14:31.613Z,15.80
2018-05-14T00:16:59.946Z,15.80
2018-05-14T00:19:28.261Z,15.70
2018-05-14T00:21:56.558Z,15.70
2018-05-14T00:24:24.886Z,15.70
2018-05-14T00:26:53.189Z,15.80
2018-05-14T00:29:21.519Z,15.70
2018-05-14T00:31:50.583Z,15.60
2018-05-14T00:34:18.913Z,15.60
2018-05-14T00:36:47.982Z,15.60
2018-05-14T00:39:16.312Z,15.60
2018-05-14T00:41:44.610Z,15.60
2018-05-14T00:44:12.950Z,15.60
2018-05-14T00:46:41.279Z,15.60
2018-05-14T00:49:09.607Z,15.50
2018-05-14T00:51:39.415Z,15.40
2018-05-14T00:54:07.760Z,15.40
2018-05-14T00:56:36.064Z,15.40
2018-05-14T00:59:05.152Z,15.30
2018-05-14T01:01:33.480Z,15.30
2018-05-14T01:04:01.909Z,15.30
2018-05-14T01:06:30.308Z,15.30
2018-05-14T01:08:58.619Z,15.30
2018-05-14T01:11:27.789Z,15.30
2018-05-14T01:13:56.262Z,15.30
2018-05-14T01:16:24.648Z,15.30
2018-05-14T01:18:54.790Z,15.30
2018-05-14T01:21:23.989Z,15.20
2018-05-14T01:23:54.383Z,15.10
2018-05-14T01:26:23.890Z,15.20
2018-05-14T01:28:53.316Z,15.10
2018-05-14T01:31:21.781Z,15.20
2018-05-14T01:33:50.141Z,15.20
2018-05-14T01:36:18.441Z,15.20
2018-05-14T01:38:47.450Z,15.10
2018-05-14T01:41:15.749Z,15.10
2018-05-14T01:43:44.078Z,15.10
2018-05-14T01:46:12.418Z,15.00
2018-05-14T01:48:40.736Z,15.00
2018-05-14T01:51:09.042Z,15.00
2018-05-14T01:53:38.345Z,15.00
2018-05-14T01:56:06.654Z,15.00
2018-05-14T01:58:35.059Z,14.90
2018-05-14T02:01:03.372Z,14.90
2018-05-14T02:03:31.689Z,14.90
2018-05-14T02:06:00.988Z,14.90
2018-05-14T02:08:29.310Z,14.80
2018-05-14T02:10:58.415Z,14.80
2018-05-14T02:13:27.503Z,14.90
2018-05-14T02:15:55.826Z,14.80
2018-05-14T02:18:24.157Z,14.80
2018-05-14T02:20:52.483Z,14.80
2018-05-14T02:23:20.791Z,14.70
2018-05-14T02:25:49.110Z,14.70
2018-05-14T02:28:18.175Z,14.70
2018-05-14T02:30:46.510Z,14.70
2018-05-14T02:33:14.835Z,14.60
2018-05-14T02:35:43.127Z,14.60
2018-05-14T02:38:11.455Z,14.60
2018-05-14T02:40:39.780Z,14.60
2018-05-14T02:43:09.152Z,14.50
2018-05-14T02:45:37.453Z,14.50
2018-05-14T02:48:05.773Z,14.50
2018-05-14T02:50:34.074Z,14.40
2018-05-14T02:53:03.193Z,14.30
2018-05-14T02:55:31.506Z,14.30
2018-05-14T02:57:59.864Z,14.30
2018-05-14T03:00:28.204Z,14.20
2018-05-14T03:02:56.547Z,14.20
2018-05-14T03:05:24.874Z,14.10
2018-05-14T03:07:53.984Z,14.10
2018-05-14T03:10:23.130Z,14.00
2018-05-14T03:12:52.162Z,14.00
2018-05-14T03:15:20.510Z,14.00
2018-05-14T03:17:48.817Z,14.00
2018-05-14T03:20:17.151Z,13.90
2018-05-14T03:22:45.487Z,13.90
2018-05-14T03:25:14.596Z,13.70
2018-05-14T03:27:43.673Z,13.70
2018-05-14T03:30:12.012Z,13.70
2018-05-14T03:32:40.315Z,13.70
2018-05-14T03:35:08.651Z,13.60
2018-05-14T03:37:37.760Z,13.60
2018-05-14T03:40:06.109Z,13.50
2018-05-14T03:42:34.516Z,13.50
2018-05-14T03:45:03.595Z,13.50
2018-05-14T03:47:31.936Z,13.50
2018-05-14T03:50:00.254Z,13.50
2018-05-14T03:52:29.357Z,13.60
2018-05-14T03:54:58.430Z,13.50
2018-05-14T03:57:26.750Z,13.50
2018-05-14T04:00:07.759Z,13.60
2018-05-14T04:02:47.967Z,13.60
2018-05-14T04:05:18.666Z,13.70
2018-05-14T04:07:47.075Z,13.70
2018-05-14T04:10:16.153Z,13.80
2018-05-14T04:12:44.507Z,13.80
2018-05-14T04:15:12.820Z,13.90
2018-05-14T04:17:41.155Z,13.90
2018-05-14T04:20:09.585Z,14.00
2018-05-14T04:22:37.917Z,14.10
2018-05-14T04:25:06.235Z,14.20
2018-05-14T04:27:34.569Z,14.30
2018-05-14T04:30:03.677Z,14.50
2018-05-14T04:32:31.978Z,14.50
2018-05-14T04:35:00.333Z,14.60
2018-05-14T04:37:28.655Z,14.70
2018-05-14T04:39:57.972Z,14.80
2018-05-14T04:42:26.275Z,14.90
2018-05-14T04:44:54.848Z,15.10
2018-05-14T04:47:23.151Z,15.20
2018-05-14T04:49:52.250Z,15.40
2018-05-14T04:52:21.328Z,15.50
2018-05-14T04:54:50.170Z,15.50
2018-05-14T04:57:18.533Z,15.60
2018-05-14T04:59:48.816Z,15.90
2018-05-14T05:02:17.299Z,15.90
2018-05-14T05:04:46.841Z,16.00
2018-05-14T05:07:15.749Z,16.30
2018-05-14T05:09:45.232Z,16.90
2018-05-14T05:12:15.063Z,17.20
2018-05-14T05:14:44.142Z,17.40
2018-05-14T05:17:12.508Z,17.40
2018-05-14T05:19:41.740Z,17.60
2018-05-14T05:22:10.067Z,17.70
2018-05-14T05:24:38.389Z,17.80
2018-05-14T05:27:06.878Z,18.00
2018-05-14T05:29:35.207Z,18.20
2018-05-14T05:32:03.543Z,18.30
2018-05-14T05:34:31.865Z,18.40
2018-05-14T05:37:00.191Z,18.60
2018-05-14T05:39:28.516Z,18.90
2018-05-14T05:41:56.807Z,19.10
2018-05-14T05:44:25.151Z,19.10
2018-05-14T05:46:53.457Z,19.40
2018-05-14T05:49:22.553Z,19.60
2018-05-14T05:51:51.619Z,19.90
2018-05-14T05:54:19.972Z,19.90
2018-05-14T05:56:48.278Z,20.10
2018-05-14T05:59:16.606Z,20.20
2018-05-14T06:01:44.918Z,20.20
2018-05-14T06:04:13.271Z,20.30
2018-05-14T06:06:41.582Z,20.80
2018-05-14T06:09:09.874Z,21.10
2018-05-14T06:11:38.197Z,21.50
2018-05-14T06:14:07.262Z,22.00
2018-05-14T06:16:35.577Z,22.00
2018-05-14T06:19:04.658Z,22.40
2018-05-14T06:21:32.980Z,22.40
2018-05-14T06:24:01.270Z,22.70
2018-05-14T06:26:29.587Z,22.50
2018-05-14T06:28:57.896Z,22.60
2018-05-14T06:31:26.976Z,23.30
2018-05-14T06:33:55.275Z,23.30
2018-05-14T06:36:24.378Z,23.40
2018-05-14T06:38:53.461Z,23.50
2018-05-14T06:41:22.537Z,24.00
2018-05-14T06:43:50.966Z,24.00
2018-05-14T06:46:20.041Z,24.30
2018-05-14T06:48:48.371Z,24.30
2018-05-14T06:51:16.687Z,24.60
2018-05-14T06:53:45.013Z,24.60
2018-05-14T06:56:14.106Z,24.90
2018-05-14T06:58:43.189Z,25.00
2018-05-14T07:01:12.279Z,25.60
2018-05-14T07:03:40.579Z,25.60
2018-05-14T07:06:09.655Z,26.30
2018-05-14T07:08:37.962Z,26.20
2018-05-14T07:11:07.105Z,27.30
2018-05-14T07:13:35.406Z,27.30
2018-05-14T07:16:03.769Z,27.40
2018-05-14T07:18:32.077Z,27.20
2018-05-14T07:21:00.438Z,28.10
2018-05-14T07:23:28.784Z,28.10
2018-05-14T07:25:57.118Z,28.40
2018-05-14T07:28:25.427Z,28.80
2018-05-14T07:30:54.522Z,28.60
2018-05-14T07:33:24.700Z,28.50
2018-05-14T07:35:53.011Z,28.50
2018-05-14T07:38:21.335Z,28.30
2018-05-14T07:40:49.697Z,28.40
2018-05-14T07:43:18.800Z,29.20
2018-05-14T07:45:47.107Z,29.10
2018-05-14T07:48:15.434Z,29.90
2018-05-14T07:50:44.520Z,29.40
2018-05-14T07:53:12.837Z,29.40
2018-05-14T07:55:41.921Z,30.00
2018-05-14T07:58:10.237Z,29.90
2018-05-14T08:00:38.578Z,30.00
2018-05-14T08:03:06.888Z,29.80
2018-05-14T08:05:36.352Z,29.50
2018-05-14T08:08:05.367Z,30.50
2018-05-14T08:10:35.640Z,30.40
2018-05-14T08:13:04.094Z,30.40
2018-05-14T08:15:34.175Z,29.90
2018-05-14T08:18:02.671Z,29.90
2018-05-14T08:20:31.033Z,30.10
2018-05-14T08:22:59.589Z,30.00
2018-05-14T08:25:28.241Z,30.60
2018-05-14T08:27:56.717Z,31.40
2018-05-14T08:30:25.566Z,31.70
2018-05-14T08:32:54.003Z,31.30
2018-05-14T08:35:22.320Z,31.10
2018-05-14T08:37:50.653Z,32.00
2018-05-14T08:40:18.963Z,31.70
2018-05-14T08:42:48.077Z,31.00
2018-05-14T08:45:16.379Z,31.00
2018-05-14T08:47:44.711Z,32.00
2018-05-14T08:50:13.676Z,32.20
2018-05-14T08:52:42.002Z,32.30
2018-05-14T08:55:11.066Z,31.90
2018-05-14T08:57:39.489Z,31.80
2018-05-14T09:00:07.731Z,31.60
2018-05-14T09:02:37.554Z,32.20
2018-05-14T09:05:05.910Z,32.20
2018-05-14T09:07:34.223Z,32.10
2018-05-14T09:10:02.565Z,33.10
2018-05-14T09:12:30.876Z,33.40
2018-05-14T09:14:59.212Z,33.10
2018-05-14T09:17:27.521Z,33.30
2018-05-14T09:19:55.839Z,33.20
2018-05-14T09:22:24.919Z,32.60
2018-05-14T09:24:53.244Z,32.60
2018-05-14T09:27:21.612Z,32.60
2018-05-14T09:29:50.717Z,32.70
2018-05-14T09:32:19.034Z,32.60
2018-05-14T09:34:47.362Z,32.50
2018-05-14T09:37:16.434Z,33.10
2018-05-14T09:39:44.783Z,33.10
2018-05-14T09:42:13.082Z,32.90
2018-05-14T09:44:41.385Z,32.90
2018-05-14T09:47:09.715Z,33.00
2018-05-14T09:49:38.019Z,32.90
2018-05-14T09:52:06.362Z,33.20
2018-05-14T09:54:34.682Z,31.90
2018-05-14T09:57:03.004Z,31.90
2018-05-14T09:59:31.343Z,31.60
2018-05-14T10:01:59.706Z,31.90
2018-05-14T10:04:28.008Z,31.80
2018-05-14T10:06:56.407Z,31.80
2018-05-14T10:09:24.735Z,31.20
2018-05-14T10:11:53.814Z,30.80
2018-05-14T10:14:22.130Z,30.70
2018-05-14T10:16:50.455Z,31.00
2018-05-14T10:19:18.778Z,31.70
2018-05-14T10:21:47.094Z,31.50
2018-05-14T10:24:15.431Z,32.20
2018-05-14T10:26:44.509Z,32.20
2018-05-14T10:29:14.441Z,31.90
2018-05-14T10:31:43.528Z,32.00
2018-05-14T10:34:11.853Z,32.00
2018-05-14T10:36:40.159Z,32.30
2018-05-14T10:39:08.511Z,33.00
2018-05-14T10:41:36.827Z,32.50
2018-05-14T10:44:05.920Z,31.40
2018-05-14T10:49:11.350Z,31.00
2018-05-14T10:51:39.660Z,31.00
2018-05-14T10:54:07.985Z,31.40
2018-05-14T10:56:37.079Z,31.80
2018-05-14T10:59:06.137Z,32.10
2018-05-14T11:01:34.454Z,32.10
2018-05-14T11:04:02.811Z,31.50
2018-05-14T11:06:31.111Z,31.80
2018-05-14T11:09:00.182Z,31.50
2018-05-14T11:11:28.530Z,31.50
2018-05-14T11:13:56.835Z,31.50
2018-05-14T11:16:25.156Z,31.90
2018-05-14T11:18:53.496Z,32.20
2018-05-14T11:21:22.904Z,32.80
2018-05-14T11:23:51.211Z,32.30
2018-05-14T11:26:20.815Z,31.90
2018-05-14T11:28:49.146Z,32.10
2018-05-14T11:31:19.011Z,31.40
2018-05-14T11:33:47.539Z,31.40
2018-05-14T11:36:17.554Z,31.60
2018-05-14T11:38:46.631Z,31.30
2018-05-14T11:41:16.848Z,31.00
2018-05-14T11:43:45.180Z,31.00
2018-05-14T11:46:14.340Z,31.00
2018-05-14T11:48:42.838Z,30.90
2018-05-14T11:51:12.870Z,30.50
2018-05-14T11:53:41.965Z,29.90
2018-05-14T11:56:11.095Z,29.80
2018-05-14T11:58:39.456Z,29.80
2018-05-14T12:01:08.548Z,29.80
2018-05-14T12:03:37.623Z,29.50
2018-05-14T12:06:05.948Z,29.50
2018-05-14T12:08:34.276Z,29.20
2018-05-14T12:11:02.617Z,28.80
2018-05-14T12:13:30.918Z,28.70
2018-05-14T12:15:59.403Z,29.20
2018-05-14T12:18:27.714Z,28.90
2018-05-14T12:20:56.808Z,28.70
2018-05-14T12:23:25.114Z,28.60
2018-05-14T12:25:54.219Z,29.00
2018-05-14T12:28:23.311Z,29.00
2018-05-14T12:30:52.410Z,28.80
2018-05-14T12:33:20.723Z,28.80
2018-05-14T12:35:49.072Z,28.80
2018-05-14T12:38:17.383Z,29.30
2018-05-14T12:40:45.725Z,29.30
2018-05-14T12:43:14.033Z,29.40
2018-05-14T12:45:42.366Z,29.90
2018-05-14T12:48:10.764Z,30.00
2018-05-14T12:50:39.071Z,29.80
2018-05-14T12:53:08.206Z,30.40
2018-05-14T12:55:36.515Z,30.40
2018-05-14T12:58:04.840Z,30.20
2018-05-14T13:00:33.162Z,30.30
2018-05-14T13:03:01.690Z,30.20
2018-05-14T13:05:30.778Z,29.10
2018-05-14T13:07:59.112Z,29.10
2018-05-14T13:10:27.526Z,29.00
2018-05-14T13:12:55.863Z,29.50
2018-05-14T13:15:24.203Z,29.00
2018-05-14T13:17:52.509Z,29.30
2018-05-14T13:20:21.727Z,29.30
2018-05-14T13:22:50.059Z,29.30
2018-05-14T13:25:18.436Z,29.50
2018-05-14T13:27:46.877Z,29.50
2018-05-14T13:30:15.215Z,30.00
2018-05-14T13:32:43.550Z,30.20
2018-05-14T13:35:11.886Z,30.00
2018-05-14T13:37:41.159Z,29.60
2018-05-14T13:40:09.444Z,30.20
2018-05-14T13:42:37.761Z,30.00
2018-05-14T13:45:06.871Z,29.50
2018-05-14T13:47:35.235Z,29.50
2018-05-14T13:50:04.378Z,29.30
2018-05-14T13:52:34.147Z,28.80
2018-05-14T13:55:03.266Z,28.70
2018-05-14T13:57:31.639Z,28.70
2018-05-14T14:00:00.727Z,28.30
2018-05-14T14:02:29.056Z,28.30
2018-05-14T14:04:57.375Z,28.80
2018-05-14T14:07:25.714Z,28.80
2018-05-14T14:09:54.041Z,28.40
2018-05-14T14:12:22.408Z,28.50
2018-05-14T14:14:50.711Z,29.00
2018-05-14T14:17:19.068Z,29.30
2018-05-14T14:19:47.399Z,28.70
2018-05-14T14:22:16.530Z,27.30
2018-05-14T14:24:44.838Z,27.30
2018-05-14T14:27:13.260Z,27.20
2018-05-14T14:29:42.407Z,28.50
2018-05-14T14:32:10.680Z,28.50
2018-05-14T14:34:39.035Z,28.70
2018-05-14T14:37:08.770Z,28.90
2018-05-14T14:39:37.241Z,29.00
2018-05-14T14:42:07.266Z,29.30
2018-05-14T14:44:35.644Z,29.30
2018-05-14T14:47:03.997Z,29.20
2018-05-14T14:49:32.581Z,29.50
2018-05-14T14:52:01.654Z,29.00
2018-05-14T14:54:30.003Z,29.10
2018-05-14T14:56:58.626Z,28.90
2018-05-14T14:59:27.152Z,28.70
2018-05-14T15:01:55.483Z,28.50
2018-05-14T15:04:23.849Z,28.40
2018-05-14T15:06:52.275Z,28.40
2018-05-14T15:09:20.634Z,28.30
2018-05-14T15:11:48.994Z,28.00
2018-05-14T15:14:17.302Z,27.50
2018-05-14T15:16:45.636Z,27.60
2018-05-14T15:19:14.073Z,27.20
2018-05-14T15:21:42.445Z,27.40
2018-05-14T15:24:10.788Z,27.20
2018-05-14T15:26:39.168Z,27.10
2018-05-14T15:29:07.465Z,27.20
2018-05-14T15:31:35.842Z,27.10
2018-05-14T15:34:04.150Z,26.60
2018-05-14T15:36:32.539Z,26.40
2018-05-14T15:39:00.873Z,26.00
2018-05-14T15:41:29.223Z,25.90
2018-05-14T15:43:57.619Z,25.80
2018-05-14T15:46:26.705Z,25.70
2018-05-14T15:48:55.091Z,25.70
2018-05-14T15:51:23.407Z,25.50
2018-05-14T15:53:51.761Z,25.50
2018-05-14T15:56:20.061Z,25.40
2018-05-14T15:58:49.645Z,25.30
2018-05-14T16:01:18.781Z,25.10
2018-05-14T16:03:47.118Z,25.10
2018-05-14T16:06:15.477Z,25.00
2018-05-14T16:08:43.816Z,24.90
2018-05-14T16:11:12.907Z,24.80
2018-05-14T16:13:42.003Z,24.80
2018-05-14T16:16:11.096Z,24.70
2018-05-14T16:18:39.435Z,24.70
2018-05-14T16:21:07.794Z,24.70
2018-05-14T16:23:36.112Z,24.60
2018-05-14T16:26:04.453Z,24.60
2018-05-14T16:28:32.769Z,24.50
2018-05-14T16:31:01.105Z,24.40
2018-05-14T16:33:29.432Z,24.40
2018-05-14T16:35:57.742Z,24.30
2018-05-14T16:38:26.062Z,24.30
2018-05-14T16:40:54.393Z,24.30
2018-05-14T16:43:22.742Z,24.20
2018-05-14T16:45:51.055Z,24.10
2018-05-14T16:48:19.395Z,24.10
2018-05-14T16:50:48.443Z,24.10
2018-05-14T16:53:16.797Z,24.00
2018-05-14T16:55:45.131Z,24.00
2018-05-14T16:58:14.237Z,23.90
2018-05-14T17:00:42.557Z,23.80
2018-05-14T17:03:11.042Z,23.80
2018-05-14T17:05:39.429Z,23.80
2018-05-14T17:08:07.771Z,23.70
2018-05-14T17:10:36.466Z,23.70
2018-05-14T17:13:05.219Z,23.70
2018-05-14T17:15:34.495Z,23.60
2018-05-14T17:18:03.052Z,23.60
2018-05-14T17:20:32.397Z,23.50
2018-05-14T17:23:00.714Z,23.50
2018-05-14T17:25:29.055Z,23.50
2018-05-14T17:27:57.375Z,23.40
2018-05-14T17:30:26.479Z,23.30
2018-05-14T17:32:55.557Z,23.30
2018-05-14T17:35:23.912Z,23.20
2018-05-14T17:37:53.714Z,23.20
2018-05-14T17:40:22.972Z,23.10
2018-05-14T17:42:53.123Z,23.00
2018-05-14T17:45:22.462Z,23.00
2018-05-14T17:47:51.809Z,23.00
2018-05-14T17:50:20.295Z,23.00
2018-05-14T17:52:48.774Z,22.90
2018-05-14T17:55:17.157Z,22.80
2018-05-14T17:57:45.618Z,22.80
2018-05-14T18:00:13.961Z,22.70
2018-05-14T18:02:42.414Z,22.60
2018-05-14T18:05:11.587Z,22.50
2018-05-14T18:07:39.894Z,22.50
2018-05-14T18:10:08.985Z,22.40
2018-05-14T18:12:38.086Z,22.30
2018-05-14T18:15:07.182Z,22.20
2018-05-14T18:17:36.577Z,22.20
2018-05-14T18:20:10.428Z,22.20
2018-05-14T18:22:41.612Z,22.10
2018-05-14T18:25:16.382Z,22.00
2018-05-14T18:27:50.488Z,22.00
2018-05-14T18:30:25.347Z,21.80
2018-05-14T18:32:55.694Z,21.80
2018-05-14T18:35:24.076Z,21.70
2018-05-14T18:37:52.406Z,21.60
2018-05-14T18:40:20.846Z,21.50
2018-05-14T18:42:49.223Z,21.50
2018-05-14T18:45:17.609Z,21.40
2018-05-14T18:47:45.940Z,21.40
2018-05-14T18:50:15.082Z,21.20
2018-05-14T18:52:44.501Z,21.20
2018-05-14T18:55:13.530Z,21.10
2018-05-14T18:57:42.504Z,21.00
2018-05-14T19:00:11.114Z,20.90
2018-05-14T19:05:20.055Z,20.60
2018-05-14T19:07:48.972Z,20.50
2018-05-14T19:10:23.743Z,20.50
2018-05-14T19:12:54.291Z,20.20
2018-05-14T19:15:30.549Z,20.20
2018-05-14T19:18:00.419Z,20.10
2018-05-14T19:20:29.377Z,20.00
2018-05-14T19:23:04.118Z,19.90
2018-05-14T19:25:33.074Z,19.90
2018-05-14T19:31:05.499Z,19.70
2018-05-14T19:33:39.623Z,19.60
2018-05-14T19:36:08.240Z,19.50
2018-05-14T19:38:36.561Z,19.40
2018-05-14T19:41:05.222Z,19.40
2018-05-14T19:43:34.380Z,19.40
2018-05-14T19:46:03.226Z,19.30
2018-05-14T19:48:33.059Z,19.20
2018-05-14T19:51:03.945Z,19.10
2018-05-14T19:53:33.450Z,19.10
2018-05-14T19:56:02.813Z,19.00
2018-05-14T19:58:34.572Z,18.90
2018-05-14T20:01:03.619Z,18.90
2018-05-14T20:03:33.923Z,18.80
2018-05-14T20:06:03.784Z,18.70
2018-05-14T20:08:33.956Z,18.70
2018-05-14T20:11:02.808Z,18.60
2018-05-14T20:13:33.115Z,18.40
2018-05-14T20:16:03.084Z,18.40
2018-05-14T20:18:33.218Z,18.20
2018-05-14T20:21:01.676Z,18.20
2018-05-14T20:23:30.225Z,18.10
2018-05-14T20:25:58.558Z,18.00
2018-05-14T20:28:28.108Z,18.00
2018-05-14T20:30:56.463Z,17.90
2018-05-14T20:33:24.808Z,17.80
2018-05-14T20:35:53.145Z,17.70
2018-05-14T20:38:21.509Z,17.60
2018-05-14T20:40:50.764Z,17.40
2018-05-14T20:43:19.146Z,17.30
2018-05-14T20:45:47.453Z,17.30
2018-05-14T20:48:16.573Z,17.30
2018-05-14T20:50:45.684Z,17.20
2018-05-14T20:53:14.068Z,17.20
2018-05-14T20:55:42.387Z,17.20
2018-05-14T20:58:10.774Z,17.10
2018-05-14T21:00:39.073Z,17.10
2018-05-14T21:03:07.410Z,17.10
2018-05-14T21:05:35.808Z,17.00
2018-05-14T21:08:04.839Z,16.90
2018-05-14T21:10:33.219Z,16.80
2018-05-14T21:13:01.534Z,16.80
2018-05-14T21:15:30.674Z,16.70
2018-05-14T21:17:58.997Z,16.70
2018-05-14T21:20:27.319Z,16.60
2018-05-14T21:22:55.635Z,16.60
2018-05-14T21:25:24.027Z,16.60
2018-05-14T21:27:52.329Z,16.50
2018-05-14T21:30:21.483Z,16.40
2018-05-14T21:32:49.813Z,16.30
2018-05-14T21:35:18.154Z,16.30
2018-05-14T21:37:46.542Z,16.30
2018-05-14T21:40:14.846Z,16.20
2018-05-14T21:42:43.326Z,16.20
2018-05-14T21:45:13.151Z,16.10
2018-05-14T21:47:42.213Z,16.00
2018-05-14T21:50:10.516Z,15.90
2018-05-14T21:52:38.981Z,16.00
2018-05-14T21:55:08.071Z,15.80
2018-05-14T21:57:36.399Z,15.80
2018-05-14T22:00:05.469Z,15.70
2018-05-14T22:02:34.841Z,15.70
2018-05-14T22:05:03.172Z,15.70
2018-05-14T22:07:31.501Z,15.60
2018-05-14T22:09:59.834Z,15.60
2018-05-14T22:12:28.151Z,15.50
2018-05-14T22:14:56.888Z,15.50
2018-05-14T22:17:25.210Z,15.50
2018-05-14T22:19:54.283Z,15.40
2018-05-14T22:22:22.637Z,15.40
2018-05-14T22:24:50.957Z,15.40
2018-05-14T22:27:20.061Z,15.30
2018-05-14T22:29:49.210Z,15.20
2018-05-14T22:32:17.549Z,15.20
2018-05-14T22:34:47.633Z,15.10
2018-05-14T22:37:15.945Z,15.10
2018-05-14T22:39:45.040Z,15.00
2018-05-14T22:42:14.126Z,15.00
2018-05-14T22:44:42.467Z,15.00
2018-05-14T22:47:10.768Z,14.90
2018-05-14T22:49:39.123Z,14.80
2018-05-14T22:52:07.427Z,14.70
2018-05-14T22:54:36.694Z,14.70
2018-05-14T22:57:05.077Z,14.60
2018-05-14T22:59:33.399Z,14.60
2018-05-14T23:02:01.723Z,14.50
2018-05-14T23:04:30.032Z,14.50
2018-05-14T23:06:58.380Z,14.40
2018-05-14T23:09:28.172Z,14.30
2018-05-14T23:11:56.511Z,14.30
2018-05-14T23:14:24.823Z,14.30
2018-05-14T23:16:53.170Z,14.30
2018-05-14T23:19:22.505Z,14.40
2018-05-14T23:21:51.000Z,14.30
2018-05-14T23:24:20.699Z,14.30
2018-05-14T23:26:49.199Z,14.40
2018-05-14T23:29:17.501Z,14.40
2018-05-14T23:31:46.597Z,14.30
2018-05-14T23:34:15.869Z,14.30
2018-05-14T23:36:44.197Z,14.30
2018-05-14T23:39:13.885Z,14.20
2018-05-14T23:41:42.480Z,14.20
2018-05-14T23:44:10.785Z,14.20
2018-05-14T23:46:39.104Z,14.10
2018-05-14T23:49:07.491Z,14.10
2018-05-14T23:51:35.814Z,14.10
2018-05-14T23:54:04.908Z,14.10
2018-05-14T23:56:33.223Z,14.10
2018-05-14T23:59:01.561Z,14.00
